createdAt,value
2023-05-20T00:00:02.010Z,81.51
2023-05-20T00:01:33.737Z,81.58
2023-05-20T00:03:05.605Z,81.49
2023-05-20T00:04:37.275Z,81.95
2023-05-20T00:06:08.896Z,81.74
2023-05-20T00:07:41.165Z,81.39
2023-05-20T00:09:13.148Z,81.29
2023-05-20T00:10:44.797Z,81.13
2023-05-20T00:12:16.419Z,81.09
2023-05-20T00:13:48.090Z,81.15
2023-05-20T00:15:19.740Z,81.17
2023-05-20T00:16:51.358Z,81.03
2023-05-20T00:18:23.125Z,80.94
2023-05-20T00:19:54.868Z,80.64
2023-05-20T00:21:26.628Z,80.91
2023-05-20T00:22:58.280Z,81.07
2023-05-20T00:24:29.855Z,80.89
2023-05-20T00:26:01.484Z,81.45
2023-05-20T00:27:33.079Z,81.68
2023-05-20T00:29:04.765Z,81.12
2023-05-20T00:30:36.371Z,80.95
2023-05-20T00:32:08.320Z,81.52
2023-05-20T00:33:40.058Z,81.10
2023-05-20T00:35:11.823Z,81.57
2023-05-20T00:36:43.546Z,81.48
2023-05-20T00:38:15.678Z,81.03
2023-05-20T00:39:47.260Z,81.11
2023-05-20T00:41:18.819Z,81.26
2023-05-20T00:42:50.672Z,80.97
2023-05-20T00:44:24.632Z,80.81
2023-05-20T00:45:56.449Z,81.02
2023-05-20T00:47:34.260Z,80.86
2023-05-20T00:49:06.805Z,80.91
2023-05-20T00:50:39.292Z,81.75
2023-05-20T00:52:11.793Z,81.52
2023-05-20T00:53:43.969Z,81.20
2023-05-20T00:55:15.692Z,81.30
2023-05-20T00:56:47.746Z,81.38
2023-05-20T00:58:19.443Z,80.90
2023-05-20T00:59:51.190Z,80.69
2023-05-20T01:01:22.949Z,80.89
2023-05-20T01:02:56.753Z,81.11
2023-05-20T01:04:28.613Z,81.04
2023-05-20T01:06:01.135Z,81.39
2023-05-20T01:07:33.255Z,81.22
2023-05-20T01:09:05.264Z,81.47
2023-05-20T01:10:39.503Z,81.47
2023-05-20T01:12:30.509Z,82.30
2023-05-20T01:14:07.780Z,82.24
2023-05-20T01:15:41.216Z,81.82
2023-05-20T01:17:17.857Z,81.69
2023-05-20T01:18:51.181Z,81.38
2023-05-20T01:20:23.115Z,81.30
2023-05-20T01:21:56.809Z,81.13
2023-05-20T01:23:46.656Z,81.10
2023-05-20T01:25:18.296Z,81.47
2023-05-20T01:26:51.196Z,81.73
2023-05-20T01:28:23.313Z,82.06
2023-05-20T01:29:56.330Z,81.97
2023-05-20T01:31:33.974Z,81.79
2023-05-20T01:33:10.722Z,82.44
2023-05-20T01:34:43.933Z,82.15
2023-05-20T01:36:16.057Z,82.11
2023-05-20T01:37:52.209Z,82.57
2023-05-20T01:39:26.339Z,82.74
2023-05-20T01:40:58.985Z,83.03
2023-05-20T01:42:30.956Z,82.89
2023-05-20T01:44:02.904Z,83.55
2023-05-20T01:45:34.824Z,83.75
2023-05-20T01:47:06.767Z,83.73
2023-05-20T01:48:38.508Z,83.80
2023-05-20T01:50:10.508Z,84.06
2023-05-20T01:51:42.119Z,84.52
2023-05-20T01:53:14.589Z,84.76
2023-05-20T01:54:51.050Z,84.76
2023-05-20T01:56:22.993Z,84.65
2023-05-20T01:57:54.721Z,84.15
2023-05-20T01:59:26.473Z,84.96
2023-05-20T02:00:58.207Z,85.00
2023-05-20T02:02:29.903Z,85.36
2023-05-20T02:04:01.736Z,85.00
2023-05-20T02:05:35.051Z,85.28
2023-05-20T02:07:09.605Z,85.28
2023-05-20T02:08:41.336Z,85.17
2023-05-20T02:10:12.978Z,85.48
2023-05-20T02:11:44.723Z,85.51
2023-05-20T02:13:16.643Z,85.69
2023-05-20T02:14:48.432Z,85.44
2023-05-20T02:16:20.937Z,85.36
2023-05-20T02:17:52.690Z,85.46
2023-05-20T02:19:24.678Z,85.58
2023-05-20T02:20:56.384Z,85.44
2023-05-20T02:22:28.031Z,85.27
2023-05-20T02:23:59.597Z,85.33
2023-05-20T02:25:32.495Z,85.50
2023-05-20T02:27:04.860Z,85.43
2023-05-20T02:28:41.749Z,85.75
2023-05-20T02:30:14.770Z,85.96
2023-05-20T02:31:46.592Z,85.52
2023-05-20T02:33:21.698Z,85.14
2023-05-20T02:34:55.125Z,85.01
2023-05-20T02:36:27.904Z,84.72
2023-05-20T02:37:59.546Z,85.13
2023-05-20T02:39:31.233Z,84.96
2023-05-20T02:41:04.547Z,84.72
2023-05-20T02:42:36.630Z,85.04
2023-05-20T02:44:08.354Z,85.64
2023-05-20T02:45:41.208Z,85.83
2023-05-20T02:47:14.200Z,85.78
2023-05-20T02:48:46.414Z,85.67
2023-05-20T02:50:18.137Z,86.09
2023-05-20T02:51:49.792Z,86.44
2023-05-20T02:53:22.259Z,86.34
2023-05-20T02:54:54.048Z,86.42
2023-05-20T02:56:27.079Z,86.41
2023-05-20T02:57:58.845Z,86.44
2023-05-20T02:59:31.060Z,85.78
2023-05-20T03:01:03.413Z,86.09
2023-05-20T03:02:35.115Z,86.02
2023-05-20T03:04:07.413Z,86.24
2023-05-20T03:05:40.170Z,86.18
2023-05-20T03:07:11.829Z,86.06
2023-05-20T03:08:43.437Z,86.20
2023-05-20T03:10:15.457Z,86.21
2023-05-20T03:11:48.086Z,86.22
2023-05-20T03:13:19.690Z,86.51
2023-05-20T03:14:55.138Z,86.80
2023-05-20T03:16:28.290Z,87.05
2023-05-20T03:18:00.093Z,87.54
2023-05-20T03:19:31.918Z,87.72
2023-05-20T03:21:04.175Z,87.58
2023-05-20T03:22:36.254Z,87.91
2023-05-20T03:24:07.938Z,88.09
2023-05-20T03:25:40.612Z,88.04
2023-05-20T03:27:13.075Z,87.65
2023-05-20T03:28:44.818Z,88.04
2023-05-20T03:30:16.464Z,87.89
2023-05-20T03:31:48.186Z,87.92
2023-05-20T03:33:20.615Z,87.57
2023-05-20T03:34:52.353Z,86.95
2023-05-20T03:36:24.109Z,86.78
2023-05-20T03:37:56.796Z,86.81
2023-05-20T03:39:29.626Z,86.54
2023-05-20T03:41:01.279Z,86.59
2023-05-20T03:42:36.810Z,86.10
2023-05-20T03:44:08.525Z,86.29
2023-05-20T03:45:40.144Z,86.04
2023-05-20T03:47:12.935Z,86.04
2023-05-20T03:48:44.581Z,86.05
2023-05-20T03:50:16.371Z,86.15
2023-05-20T03:51:48.015Z,86.36
2023-05-20T03:53:20.869Z,86.56
2023-05-20T03:54:53.809Z,86.14
2023-05-20T03:56:26.440Z,86.48
2023-05-20T03:57:58.083Z,86.28
2023-05-20T03:59:30.383Z,86.25
2023-05-20T04:01:02.185Z,85.78
2023-05-20T04:02:35.625Z,85.40
2023-05-20T04:04:07.436Z,85.38
2023-05-20T04:05:39.357Z,85.48
2023-05-20T04:07:19.216Z,86.08
2023-05-20T04:08:51.046Z,85.97
2023-05-20T04:10:25.469Z,85.78
2023-05-20T04:11:57.429Z,85.40
2023-05-20T04:13:29.097Z,85.69
2023-05-20T04:15:01.338Z,86.17
2023-05-20T04:16:37.477Z,86.08
2023-05-20T04:18:10.363Z,86.04
2023-05-20T04:19:42.656Z,86.44
2023-05-20T04:21:14.961Z,86.21
2023-05-20T04:22:46.661Z,85.92
2023-05-20T04:24:18.248Z,85.80
2023-05-20T04:25:50.160Z,85.44
2023-05-20T04:27:22.139Z,85.95
2023-05-20T04:28:53.778Z,86.19
2023-05-20T04:30:25.827Z,86.12
2023-05-20T04:31:58.714Z,86.09
2023-05-20T04:33:33.060Z,85.89
2023-05-20T04:35:11.441Z,86.05
2023-05-20T04:36:45.721Z,86.02
2023-05-20T04:38:17.457Z,85.76
2023-05-20T04:39:49.969Z,85.79
2023-05-20T04:41:22.573Z,86.00
2023-05-20T04:42:54.729Z,86.23
2023-05-20T04:44:26.576Z,86.28
2023-05-20T04:45:59.851Z,86.43
2023-05-20T04:47:38.435Z,86.98
2023-05-20T04:49:10.314Z,86.95
2023-05-20T04:50:41.977Z,86.78
2023-05-20T04:52:13.593Z,86.72
2023-05-20T04:53:46.284Z,86.40
2023-05-20T04:55:18.564Z,86.66
2023-05-20T04:56:51.086Z,86.58
2023-05-20T04:58:25.005Z,86.06
2023-05-20T04:59:58.830Z,85.73
2023-05-20T05:01:30.870Z,85.62
2023-05-20T05:03:02.924Z,85.23
2023-05-20T05:04:34.828Z,85.15
2023-05-20T05:06:06.577Z,84.96
2023-05-20T05:07:38.226Z,84.56
2023-05-20T05:09:10.062Z,84.50
2023-05-20T05:10:45.284Z,84.00
2023-05-20T05:12:17.207Z,84.11
2023-05-20T05:13:48.842Z,83.58
2023-05-20T05:15:20.849Z,83.62
2023-05-20T05:16:54.926Z,83.44
2023-05-20T05:18:27.459Z,83.51
2023-05-20T05:19:59.101Z,83.26
2023-05-20T05:21:33.407Z,83.53
2023-05-20T05:23:05.099Z,83.35
2023-05-20T05:24:38.578Z,82.93
2023-05-20T05:26:10.499Z,82.85
2023-05-20T05:27:42.920Z,82.65
2023-05-20T05:29:14.817Z,82.59
2023-05-20T05:30:46.443Z,82.27
2023-05-20T05:32:18.239Z,82.30
2023-05-20T05:33:50.051Z,82.35
2023-05-20T05:35:21.756Z,82.09
2023-05-20T05:36:53.709Z,82.45
2023-05-20T05:38:25.690Z,82.63
2023-05-20T05:39:57.749Z,82.89
2023-05-20T05:41:29.686Z,82.73
2023-05-20T05:43:02.022Z,82.96
2023-05-20T05:44:33.713Z,83.41
2023-05-20T05:46:05.978Z,83.44
2023-05-20T05:47:37.849Z,83.07
2023-05-20T05:49:09.629Z,83.00
2023-05-20T05:50:45.943Z,83.15
2023-05-20T05:52:19.005Z,83.29
2023-05-20T05:53:50.580Z,83.06
2023-05-20T05:55:24.058Z,83.03
2023-05-20T05:56:59.227Z,82.89
2023-05-20T05:58:33.215Z,83.00
2023-05-20T06:00:05.896Z,83.11
2023-05-20T06:01:49.497Z,83.12
2023-05-20T06:03:21.552Z,82.60
2023-05-20T06:04:53.773Z,82.59
2023-05-20T06:06:25.526Z,82.00
2023-05-20T06:07:57.171Z,81.98
2023-05-20T06:09:29.542Z,81.92
2023-05-20T06:11:01.188Z,81.93
2023-05-20T06:12:32.792Z,81.58
2023-05-20T06:14:04.485Z,81.37
2023-05-20T06:15:36.883Z,81.12
2023-05-20T06:17:08.942Z,80.64
2023-05-20T06:18:40.688Z,80.63
2023-05-20T06:20:12.782Z,80.46
2023-05-20T06:21:44.440Z,80.89
2023-05-20T06:23:16.595Z,80.14
2023-05-20T06:25:00.685Z,80.03
2023-05-20T06:26:32.595Z,80.13
2023-05-20T06:28:05.066Z,79.69
2023-05-20T06:29:37.403Z,79.95
2023-05-20T06:31:09.213Z,78.65
2023-05-20T06:32:41.337Z,78.66
2023-05-20T06:34:13.078Z,78.68
2023-05-20T06:35:44.765Z,78.09
2023-05-20T06:37:16.573Z,78.22
2023-05-20T06:38:48.772Z,78.17
2023-05-20T06:40:21.336Z,77.71
2023-05-20T06:41:53.535Z,77.60
2023-05-20T06:43:33.656Z,77.27
2023-05-20T06:45:10.542Z,76.98
2023-05-20T06:46:47.401Z,76.87
2023-05-20T06:48:20.664Z,76.51
2023-05-20T06:49:52.569Z,76.54
2023-05-20T06:51:24.533Z,76.06
2023-05-20T06:52:56.267Z,76.04
2023-05-20T06:54:27.956Z,75.63
2023-05-20T06:56:00.202Z,75.41
2023-05-20T06:57:32.010Z,74.37
2023-05-20T06:59:03.778Z,74.32
2023-05-20T07:00:39.252Z,73.92
2023-05-20T07:02:11.688Z,73.49
2023-05-20T07:03:44.362Z,72.81
2023-05-20T07:05:16.742Z,72.73
2023-05-20T07:06:48.519Z,72.19
2023-05-20T07:08:20.208Z,71.24
2023-05-20T07:09:53.238Z,70.92
2023-05-20T07:11:25.182Z,71.02
2023-05-20T07:12:56.899Z,70.71
2023-05-20T07:14:28.621Z,70.13
2023-05-20T07:16:00.491Z,70.20
2023-05-20T07:17:32.887Z,70.60
2023-05-20T07:19:04.759Z,71.74
2023-05-20T07:20:38.453Z,71.47
2023-05-20T07:22:15.833Z,72.08
2023-05-20T07:23:57.374Z,71.65
2023-05-20T07:25:28.986Z,72.45
2023-05-20T07:27:00.757Z,71.62
2023-05-20T07:28:32.742Z,71.13
2023-05-20T07:30:04.946Z,70.63
2023-05-20T07:31:38.412Z,69.78
2023-05-20T07:33:10.239Z,69.44
2023-05-20T07:34:41.901Z,67.79
2023-05-20T07:36:14.255Z,66.06
2023-05-20T07:37:48.178Z,65.35
2023-05-20T07:39:20.156Z,64.63
2023-05-20T07:40:51.978Z,65.38
2023-05-20T07:42:23.739Z,65.67
2023-05-20T07:44:03.577Z,65.20
2023-05-20T07:45:37.220Z,64.09
2023-05-20T07:47:09.565Z,63.65
2023-05-20T07:48:41.415Z,62.94
2023-05-20T07:50:13.160Z,63.08
2023-05-20T07:51:46.340Z,63.40
2023-05-20T07:53:19.964Z,63.84
2023-05-20T07:54:51.799Z,63.47
2023-05-20T07:56:23.728Z,63.68
2023-05-20T07:57:55.837Z,64.02
2023-05-20T07:59:27.841Z,64.08
2023-05-20T08:00:59.513Z,65.04
2023-05-20T08:02:31.283Z,63.87
2023-05-20T08:04:03.915Z,63.28
2023-05-20T08:05:38.739Z,62.17
2023-05-20T08:07:11.126Z,62.99
2023-05-20T08:08:56.077Z,62.81
2023-05-20T08:10:33.610Z,62.51
2023-05-20T08:12:05.871Z,62.86
2023-05-20T08:13:37.599Z,62.44
2023-05-20T08:15:09.995Z,62.04
2023-05-20T08:16:43.366Z,61.79
2023-05-20T08:18:15.893Z,62.62
2023-05-20T08:19:47.568Z,62.46
2023-05-20T08:21:19.482Z,62.88
2023-05-20T08:22:51.386Z,61.80
2023-05-20T08:24:23.020Z,62.08
2023-05-20T08:25:55.722Z,62.27
2023-05-20T08:27:29.054Z,62.21
2023-05-20T08:29:01.342Z,62.69
2023-05-20T08:30:34.387Z,61.16
2023-05-20T08:32:06.554Z,60.38
2023-05-20T08:33:39.530Z,60.92
2023-05-20T08:35:11.475Z,60.25
2023-05-20T08:36:45.231Z,60.98
2023-05-20T08:38:17.026Z,60.97
2023-05-20T08:39:50.050Z,60.46
2023-05-20T08:41:22.773Z,59.92
2023-05-20T08:42:55.193Z,60.27
2023-05-20T08:44:28.330Z,59.85
2023-05-20T08:46:02.455Z,60.38
2023-05-20T08:47:35.612Z,60.76
2023-05-20T08:49:07.779Z,60.63
2023-05-20T08:50:40.158Z,60.62
2023-05-20T08:52:13.855Z,60.94
2023-05-20T08:53:46.638Z,61.09
2023-05-20T08:55:36.727Z,60.06
2023-05-20T08:57:08.840Z,59.09
2023-05-20T08:58:40.767Z,59.11
2023-05-20T09:00:17.106Z,59.63
2023-05-20T09:01:48.877Z,58.16
2023-05-20T09:03:21.554Z,58.32
2023-05-20T09:04:54.244Z,58.84
2023-05-20T09:06:26.232Z,57.86
2023-05-20T09:08:08.755Z,58.09
2023-05-20T09:09:41.316Z,57.94
2023-05-20T09:11:13.576Z,58.13
2023-05-20T09:12:45.687Z,57.69
2023-05-20T09:14:17.413Z,58.02
2023-05-20T09:15:49.197Z,58.65
2023-05-20T09:17:23.157Z,58.69
2023-05-20T09:18:56.732Z,58.42
2023-05-20T09:20:31.966Z,58.10
2023-05-20T09:22:05.270Z,58.28
2023-05-20T09:23:38.470Z,58.87
2023-05-20T09:25:12.353Z,59.04
2023-05-20T09:26:44.044Z,58.22
2023-05-20T09:28:15.737Z,58.70
2023-05-20T09:29:48.898Z,58.64
2023-05-20T09:31:20.871Z,58.24
2023-05-20T09:32:56.643Z,58.93
2023-05-20T09:34:29.162Z,58.59
2023-05-20T09:36:05.135Z,59.28
2023-05-20T09:37:37.956Z,58.45
2023-05-20T09:39:14.438Z,58.96
2023-05-20T09:40:47.947Z,58.38
2023-05-20T09:42:26.450Z,58.02
2023-05-20T09:43:59.772Z,56.82
2023-05-20T09:45:31.952Z,58.09
2023-05-20T09:47:08.646Z,57.60
2023-05-20T09:48:40.815Z,56.17
2023-05-20T09:50:13.238Z,55.73
2023-05-20T09:51:46.874Z,55.68
2023-05-20T09:53:19.316Z,55.42
2023-05-20T09:54:51.961Z,54.88
2023-05-20T09:56:25.377Z,54.24
2023-05-20T09:57:58.839Z,53.79
2023-05-20T09:59:32.779Z,54.48
2023-05-20T10:01:06.660Z,54.39
2023-05-20T10:02:38.732Z,54.94
2023-05-20T10:04:12.629Z,55.29
2023-05-20T10:06:10.178Z,54.70
2023-05-20T10:07:47.954Z,53.26
2023-05-20T10:09:22.932Z,54.55
2023-05-20T10:11:03.727Z,52.65
2023-05-20T10:12:54.070Z,53.10
2023-05-20T10:15:07.433Z,53.36
2023-05-20T10:16:56.541Z,52.76
2023-05-20T10:18:40.029Z,53.28
2023-05-20T10:20:12.638Z,53.06
2023-05-20T10:21:44.600Z,53.28
2023-05-20T10:23:29.031Z,53.09
2023-05-20T10:25:08.659Z,52.09
2023-05-20T10:26:42.272Z,52.30
2023-05-20T10:28:14.129Z,52.66
2023-05-20T10:29:53.064Z,51.79
2023-05-20T10:31:25.809Z,51.84
2023-05-20T10:33:03.469Z,51.69
2023-05-20T10:34:49.537Z,52.14
2023-05-20T10:36:28.730Z,51.45
2023-05-20T10:38:11.977Z,51.15
2023-05-20T10:39:43.695Z,52.44
2023-05-20T10:41:21.591Z,52.09
2023-05-20T10:42:53.689Z,51.88
2023-05-20T10:44:25.543Z,51.83
2023-05-20T10:45:58.278Z,51.89
2023-05-20T10:47:31.280Z,51.84
2023-05-20T10:49:04.169Z,51.28
2023-05-20T10:50:37.051Z,50.86
2023-05-20T10:52:10.423Z,50.12
2023-05-20T10:53:45.899Z,50.35
2023-05-20T10:55:22.634Z,50.52
2023-05-20T10:56:54.695Z,50.58
2023-05-20T10:58:26.664Z,50.84
2023-05-20T10:59:59.684Z,50.24
2023-05-20T11:01:31.600Z,50.65
2023-05-20T11:03:05.595Z,49.91
2023-05-20T11:04:37.610Z,48.78
2023-05-20T11:06:18.507Z,50.16
2023-05-20T11:07:51.252Z,50.14
2023-05-20T11:09:23.122Z,50.52
2023-05-20T11:10:56.992Z,49.48
2023-05-20T11:12:28.698Z,49.63
2023-05-20T11:14:00.689Z,50.10
2023-05-20T11:15:33.480Z,50.37
2023-05-20T11:17:08.076Z,50.87
2023-05-20T11:18:39.892Z,49.86
2023-05-20T11:20:14.713Z,50.59
2023-05-20T11:21:48.561Z,50.23
2023-05-20T11:23:20.197Z,50.42
2023-05-20T11:24:51.792Z,50.30
2023-05-20T11:26:23.535Z,50.69
2023-05-20T11:27:55.216Z,51.06
2023-05-20T11:29:27.295Z,51.58
2023-05-20T11:30:59.842Z,51.33
2023-05-20T11:32:31.612Z,50.37
2023-05-20T11:34:04.118Z,50.83
2023-05-20T11:35:35.902Z,50.58
2023-05-20T11:37:09.368Z,49.76
2023-05-20T11:38:42.179Z,48.80
2023-05-20T11:40:14.743Z,48.81
2023-05-20T11:41:47.169Z,47.32
2023-05-20T11:43:19.537Z,47.62
2023-05-20T11:44:51.220Z,46.04
2023-05-20T11:46:22.870Z,47.43
2023-05-20T11:48:02.662Z,47.06
2023-05-20T11:49:40.279Z,46.91
2023-05-20T11:51:13.256Z,46.22
2023-05-20T11:52:44.940Z,46.29
2023-05-20T11:54:16.508Z,46.95
2023-05-20T11:55:52.770Z,46.68
2023-05-20T11:57:24.401Z,46.78
2023-05-20T11:58:58.540Z,46.56
2023-05-20T12:00:36.281Z,46.28
2023-05-20T12:02:16.146Z,46.84
2023-05-20T12:03:48.133Z,44.88
2023-05-20T12:05:20.274Z,45.26
2023-05-20T12:06:53.177Z,44.16
2023-05-20T12:08:24.880Z,43.44
2023-05-20T12:09:56.487Z,44.65
2023-05-20T12:11:28.095Z,44.59
2023-05-20T12:13:00.626Z,45.39
2023-05-20T12:14:32.278Z,45.56
2023-05-20T12:16:06.000Z,44.49
2023-05-20T12:17:49.563Z,44.95
2023-05-20T12:19:21.458Z,45.40
2023-05-20T12:20:53.284Z,47.12
2023-05-20T12:22:24.929Z,45.41
2023-05-20T12:23:58.001Z,45.06
2023-05-20T12:25:29.865Z,44.16
2023-05-20T12:27:04.096Z,45.50
2023-05-20T12:28:36.206Z,45.41
2023-05-20T12:30:09.940Z,45.96
2023-05-20T12:31:41.634Z,45.57
2023-05-20T12:33:13.616Z,45.72
2023-05-20T12:34:45.291Z,44.58
2023-05-20T12:36:17.059Z,42.48
2023-05-20T12:37:48.666Z,42.29
2023-05-20T12:39:20.361Z,41.75
2023-05-20T12:40:51.995Z,42.24
2023-05-20T12:42:23.690Z,43.57
2023-05-20T12:43:55.423Z,44.72
2023-05-20T12:45:27.152Z,45.24
2023-05-20T12:46:59.102Z,44.55
2023-05-20T12:48:30.862Z,42.87
2023-05-20T12:50:03.808Z,40.00
2023-05-20T12:51:35.397Z,38.90
2023-05-20T12:53:07.068Z,37.54
2023-05-20T12:54:38.663Z,36.59
2023-05-20T12:56:10.714Z,37.48
2023-05-20T12:57:47.334Z,39.25
2023-05-20T12:59:18.973Z,39.97
2023-05-20T13:00:50.777Z,40.67
2023-05-20T13:02:22.614Z,39.03
2023-05-20T13:03:55.450Z,38.97
2023-05-20T13:05:27.343Z,37.64
2023-05-20T13:06:59.524Z,37.24
2023-05-20T13:08:31.307Z,36.26
2023-05-20T13:10:03.089Z,35.59
2023-05-20T13:11:34.693Z,36.56
2023-05-20T13:13:06.745Z,37.41
2023-05-20T13:14:38.453Z,36.71
2023-05-20T13:16:10.702Z,37.22
2023-05-20T13:17:42.803Z,39.52
2023-05-20T13:19:14.535Z,40.33
2023-05-20T13:20:47.110Z,41.31
2023-05-20T13:22:19.456Z,41.54
2023-05-20T13:23:51.806Z,42.54
2023-05-20T13:25:23.714Z,42.77
2023-05-20T13:26:55.882Z,42.96
2023-05-20T13:28:27.537Z,41.89
2023-05-20T13:29:59.511Z,42.26
2023-05-20T13:31:31.222Z,42.81
2023-05-20T13:33:03.108Z,43.42
2023-05-20T13:34:34.816Z,42.99
2023-05-20T13:36:06.837Z,42.41
2023-05-20T13:37:38.594Z,39.93
2023-05-20T13:39:11.093Z,39.92
2023-05-20T13:40:42.709Z,39.09
2023-05-20T13:42:14.402Z,40.44
2023-05-20T13:43:46.698Z,41.76
2023-05-20T13:45:18.769Z,41.99
2023-05-20T13:46:50.374Z,42.19
2023-05-20T13:48:22.101Z,41.22
2023-05-20T13:49:53.943Z,40.84
2023-05-20T13:51:25.618Z,41.57
2023-05-20T13:52:57.324Z,41.12
2023-05-20T13:54:29.019Z,38.95
2023-05-20T13:56:00.978Z,38.94
2023-05-20T13:57:32.647Z,39.03
2023-05-20T13:59:04.339Z,38.04
2023-05-20T14:00:39.200Z,37.47
2023-05-20T14:02:11.318Z,38.85
2023-05-20T14:03:43.504Z,40.57
2023-05-20T14:05:15.442Z,40.71
2023-05-20T14:06:47.098Z,40.05
2023-05-20T14:08:18.766Z,40.87
2023-05-20T14:09:50.458Z,40.53
2023-05-20T14:11:22.232Z,42.22
2023-05-20T14:12:54.456Z,41.91
2023-05-20T14:14:26.493Z,42.69
2023-05-20T14:15:58.244Z,42.81
2023-05-20T14:17:30.147Z,43.15
2023-05-20T14:19:01.974Z,43.07
2023-05-20T14:20:33.889Z,42.82
2023-05-20T14:22:05.774Z,42.71
2023-05-20T14:23:37.391Z,42.52
2023-05-20T14:25:09.299Z,43.41
2023-05-20T14:26:40.967Z,43.34
2023-05-20T14:28:12.710Z,43.83
2023-05-20T14:29:44.301Z,44.20
2023-05-20T14:31:16.340Z,43.95
2023-05-20T14:32:48.006Z,44.07
2023-05-20T14:34:19.654Z,44.10
2023-05-20T14:35:51.320Z,43.88
2023-05-20T14:37:23.159Z,43.02
2023-05-20T14:38:54.802Z,44.08
2023-05-20T14:40:26.441Z,44.16
2023-05-20T14:41:58.040Z,42.48
2023-05-20T14:43:31.360Z,42.62
2023-05-20T14:45:04.016Z,42.47
2023-05-20T14:46:35.794Z,42.27
2023-05-20T14:48:07.500Z,42.20
2023-05-20T14:49:39.290Z,43.22
2023-05-20T14:51:11.044Z,42.92
2023-05-20T14:52:42.797Z,42.62
2023-05-20T14:54:15.670Z,42.82
2023-05-20T14:55:47.324Z,43.21
2023-05-20T14:57:19.200Z,42.47
2023-05-20T14:58:51.044Z,42.09
2023-05-20T15:00:22.704Z,41.94
2023-05-20T15:01:54.446Z,41.95
2023-05-20T15:03:27.952Z,42.16
2023-05-20T15:04:59.774Z,42.54
2023-05-20T15:06:31.927Z,42.08
2023-05-20T15:08:03.813Z,42.63
2023-05-20T15:09:35.777Z,42.33
2023-05-20T15:11:07.393Z,42.84
2023-05-20T15:12:38.981Z,42.81
2023-05-20T15:14:10.600Z,42.94
2023-05-20T15:15:42.334Z,43.02
2023-05-20T15:17:14.001Z,42.43
2023-05-20T15:18:46.223Z,42.99
2023-05-20T15:20:17.911Z,43.00
2023-05-20T15:21:52.273Z,42.73
2023-05-20T15:23:23.913Z,42.42
2023-05-20T15:24:55.528Z,42.16
2023-05-20T15:26:27.187Z,41.87
2023-05-20T15:27:58.829Z,42.21
2023-05-20T15:29:30.534Z,42.51
2023-05-20T15:31:02.154Z,42.25
2023-05-20T15:32:33.988Z,43.15
2023-05-20T15:34:05.868Z,42.18
2023-05-20T15:35:37.537Z,42.08
2023-05-20T15:37:09.213Z,42.08
2023-05-20T15:38:41.032Z,41.78
2023-05-20T15:40:12.744Z,41.98
2023-05-20T15:41:44.660Z,42.34
2023-05-20T15:43:17.184Z,42.80
2023-05-20T15:44:48.827Z,42.13
2023-05-20T15:46:21.015Z,41.94
2023-05-20T15:47:52.805Z,42.42
2023-05-20T15:49:24.412Z,42.51
2023-05-20T15:50:56.261Z,42.77
2023-05-20T15:52:28.232Z,42.45
2023-05-20T15:53:59.880Z,42.65
2023-05-20T15:55:31.528Z,42.41
2023-05-20T15:57:03.284Z,42.71
2023-05-20T15:58:34.907Z,42.74
2023-05-20T16:00:10.312Z,42.96
2023-05-20T16:01:42.022Z,42.83
2023-05-20T16:03:14.000Z,43.08
2023-05-20T16:04:46.113Z,43.09
2023-05-20T16:06:18.072Z,42.78
2023-05-20T16:07:50.851Z,42.73
2023-05-20T16:09:22.621Z,43.05
2023-05-20T16:10:54.790Z,42.50
2023-05-20T16:12:26.866Z,42.98
2023-05-20T16:13:58.774Z,43.11
2023-05-20T16:15:36.405Z,43.25
2023-05-20T16:17:08.119Z,43.64
2023-05-20T16:18:39.834Z,42.96
2023-05-20T16:20:11.866Z,42.34
2023-05-20T16:21:43.516Z,42.96
2023-05-20T16:23:15.217Z,43.56
2023-05-20T16:24:46.846Z,42.77
2023-05-20T16:26:18.774Z,43.06
2023-05-20T16:27:50.481Z,41.96
2023-05-20T16:29:22.137Z,41.67
2023-05-20T16:30:53.717Z,41.96
2023-05-20T16:32:25.488Z,41.65
2023-05-20T16:33:57.468Z,41.17
2023-05-20T16:35:29.102Z,41.92
2023-05-20T16:37:00.852Z,42.07
2023-05-20T16:38:34.451Z,42.18
2023-05-20T16:40:07.462Z,42.62
2023-05-20T16:41:39.041Z,42.92
2023-05-20T16:43:10.760Z,42.70
2023-05-20T16:44:42.365Z,43.04
2023-05-20T16:46:14.650Z,43.69
2023-05-20T16:47:46.625Z,42.90
2023-05-20T16:49:18.429Z,42.98
2023-05-20T16:50:50.241Z,43.85
2023-05-20T16:52:22.034Z,43.75
2023-05-20T16:53:53.828Z,43.99
2023-05-20T16:55:25.747Z,43.69
2023-05-20T16:56:57.514Z,43.86
2023-05-20T16:58:29.125Z,44.96
2023-05-20T17:00:00.798Z,44.03
2023-05-20T17:01:32.512Z,42.98
2023-05-20T17:03:04.526Z,44.43
2023-05-20T17:04:36.781Z,44.13
2023-05-20T17:06:09.445Z,44.27
2023-05-20T17:07:41.105Z,44.50
2023-05-20T17:09:12.720Z,45.13
2023-05-20T17:10:44.562Z,44.18
2023-05-20T17:12:16.881Z,44.57
2023-05-20T17:13:48.457Z,44.92
2023-05-20T17:15:20.041Z,45.40
2023-05-20T17:16:51.697Z,45.53
2023-05-20T17:18:23.463Z,45.45
2023-05-20T17:19:55.117Z,44.96
2023-05-20T17:21:26.764Z,45.35
2023-05-20T17:22:58.521Z,46.06
2023-05-20T17:24:30.130Z,46.03
2023-05-20T17:26:01.733Z,46.66
2023-05-20T17:27:49.455Z,45.83
2023-05-20T17:29:21.239Z,46.29
2023-05-20T17:30:53.032Z,45.56
2023-05-20T17:32:24.718Z,45.76
2023-05-20T17:33:56.670Z,45.69
2023-05-20T17:35:28.762Z,47.04
2023-05-20T17:37:00.643Z,46.44
2023-05-20T17:38:32.200Z,46.98
2023-05-20T17:40:07.048Z,46.13
2023-05-20T17:41:38.692Z,46.45
2023-05-20T17:43:10.421Z,46.60
2023-05-20T17:44:42.039Z,47.49
2023-05-20T17:46:13.767Z,47.09
2023-05-20T17:47:45.516Z,47.01
2023-05-20T17:49:17.289Z,47.08
2023-05-20T17:50:49.018Z,46.82
2023-05-20T17:52:20.649Z,47.67
2023-05-20T17:53:52.331Z,47.61
2023-05-20T17:55:24.448Z,47.28
2023-05-20T17:56:56.192Z,47.95
2023-05-20T17:58:27.960Z,48.35
2023-05-20T17:59:59.596Z,48.50
2023-05-20T18:01:31.333Z,49.38
2023-05-20T18:03:03.094Z,48.71
2023-05-20T18:04:34.738Z,48.75
2023-05-20T18:06:06.460Z,49.54
2023-05-20T18:07:38.047Z,49.69
2023-05-20T18:09:10.071Z,49.68
2023-05-20T18:10:41.989Z,50.04
2023-05-20T18:12:13.663Z,50.41
2023-05-20T18:13:45.254Z,50.19
2023-05-20T18:15:18.385Z,50.09
2023-05-20T18:16:50.047Z,50.17
2023-05-20T18:18:21.761Z,50.39
2023-05-20T18:19:53.452Z,50.54
2023-05-20T18:21:26.081Z,50.60
2023-05-20T18:23:00.427Z,49.96
2023-05-20T18:24:32.089Z,50.78
2023-05-20T18:26:06.870Z,50.96
2023-05-20T18:27:39.505Z,51.60
2023-05-20T18:29:12.466Z,51.52
2023-05-20T18:30:44.092Z,51.59
2023-05-20T18:32:15.888Z,51.84
2023-05-20T18:33:47.546Z,52.37
2023-05-20T18:35:19.291Z,51.69
2023-05-20T18:36:51.004Z,52.40
2023-05-20T18:38:23.329Z,52.54
2023-05-20T18:39:57.088Z,52.88
2023-05-20T18:41:39.435Z,53.21
2023-05-20T18:43:18.124Z,54.06
2023-05-20T18:44:50.061Z,53.91
2023-05-20T18:46:21.879Z,53.85
2023-05-20T18:47:54.721Z,54.12
2023-05-20T18:49:26.487Z,54.39
2023-05-20T18:50:58.709Z,54.63
2023-05-20T18:52:30.761Z,54.93
2023-05-20T18:54:02.692Z,54.88
2023-05-20T18:55:34.806Z,55.06
2023-05-20T18:57:08.046Z,55.35
2023-05-20T18:58:39.679Z,55.40
2023-05-20T19:00:12.279Z,55.68
2023-05-20T19:01:44.544Z,55.84
2023-05-20T19:03:17.561Z,56.17
2023-05-20T19:04:49.303Z,56.19
2023-05-20T19:06:21.909Z,56.13
2023-05-20T19:07:53.674Z,56.71
2023-05-20T19:09:25.743Z,56.56
2023-05-20T19:10:57.369Z,57.09
2023-05-20T19:12:29.211Z,57.37
2023-05-20T19:14:01.036Z,57.07
2023-05-20T19:15:32.733Z,57.30
2023-05-20T19:17:04.816Z,57.46
2023-05-20T19:18:36.598Z,57.71
2023-05-20T19:20:08.883Z,57.93
2023-05-20T19:21:42.026Z,57.88
2023-05-20T19:23:13.623Z,57.97
2023-05-20T19:24:45.228Z,58.14
2023-05-20T19:26:18.000Z,58.14
2023-05-20T19:27:49.662Z,58.47
2023-05-20T19:29:21.294Z,58.72
2023-05-20T19:30:53.437Z,58.92
2023-05-20T19:32:25.437Z,59.22
2023-05-20T19:33:57.120Z,59.16
2023-05-20T19:35:29.325Z,59.46
2023-05-20T19:37:01.509Z,59.30
2023-05-20T19:38:33.157Z,59.28
2023-05-20T19:40:05.332Z,59.56
2023-05-20T19:41:38.534Z,59.48
2023-05-20T19:43:10.411Z,59.82
2023-05-20T19:44:42.103Z,59.76
2023-05-20T19:46:13.816Z,59.96
2023-05-20T19:47:45.590Z,59.99
2023-05-20T19:49:17.283Z,59.71
2023-05-20T19:50:49.121Z,59.92
2023-05-20T19:52:20.968Z,59.93
2023-05-20T19:53:52.870Z,60.13
2023-05-20T19:55:24.771Z,60.08